sensor_id;sensor_type;location;lat;lon;timestamp;pressure;altitude;pressure_sealevel;temperature;humidity
13434;BME280;6789;47.678;9.158;2022-07-19T00:01:21;97155.69;;;20.80;69.08
13434;BME280;6789;47.678;9.158;2022-07-19T00:06:34;97160.00;;;20.66;69.59
13434;BME280;6789;47.678;9.158;2022-07-19T00:11:27;97158.72;;;20.59;68.38
13434;BME280;6789;47.678;9.158;2022-07-19T00:17:41;97165.38;;;20.56;68.52
13434;BME280;6789;47.678;9.158;2022-07-19T00:22:37;97157.72;;;20.50;69.01
13434;BME280;6789;47.678;9.158;2022-07-19T00:27:33;97161.47;;;20.44;69.17
13434;BME280;6789;47.678;9.158;2022-07-19T00:33:39;97167.34;;;20.41;70.41
13434;BME280;6789;47.678;9.158;2022-07-19T00:38:48;97163.44;;;20.28;70.13
13434;BME280;6789;47.678;9.158;2022-07-19T00:44:11;97166.16;;;20.13;70.01
13434;BME280;6789;47.678;9.158;2022-07-19T00:49:05;97159.81;;;20.05;70.15
13434;BME280;6789;47.678;9.158;2022-07-19T00:54:00;97149.19;;;20.00;69.99
13434;BME280;6789;47.678;9.158;2022-07-19T00:58:54;97155.56;;;19.89;70.01
13434;BME280;6789;47.678;9.158;2022-07-19T01:03:48;97156.16;;;19.81;69.37
13434;BME280;6789;47.678;9.158;2022-07-19T01:09:05;97156.97;;;19.71;70.46
13434;BME280;6789;47.678;9.158;2022-07-19T01:14:12;97153.53;;;19.61;70.84
13434;BME280;6789;47.678;9.158;2022-07-19T01:19:07;97148.25;;;19.56;69.74
13434;BME280;6789;47.678;9.158;2022-07-19T01:24:14;97138.41;;;19.46;70.04
13434;BME280;6789;47.678;9.158;2022-07-19T01:29:06;97148.25;;;19.46;70.86
13434;BME280;6789;47.678;9.158;2022-07-19T01:33:58;97146.13;;;19.43;71.70
13434;BME280;6789;47.678;9.158;2022-07-19T01:39:10;97141.63;;;19.34;73.57
13434;BME280;6789;47.678;9.158;2022-07-19T01:44:16;97137.09;;;19.29;73.47
13434;BME280;6789;47.678;9.158;2022-07-19T01:49:08;97126.47;;;19.24;74.06
13434;BME280;6789;47.678;9.158;2022-07-19T01:54:00;97127.28;;;19.20;74.19
13434;BME280;6789;47.678;9.158;2022-07-19T01:58:51;97119.56;;;19.13;75.14
13434;BME280;6789;47.678;9.158;2022-07-19T02:03:43;97112.13;;;19.00;76.02
13434;BME280;6789;47.678;9.158;2022-07-19T02:08:35;97110.53;;;18.99;76.00
13434;BME280;6789;47.678;9.158;2022-07-19T02:13:44;97108.13;;;18.98;76.35
13434;BME280;6789;47.678;9.158;2022-07-19T02:18:56;97102.28;;;18.96;76.47
13434;BME280;6789;47.678;9.158;2022-07-19T02:23:48;97092.19;;;18.88;77.03
13434;BME280;6789;47.678;9.158;2022-07-19T02:28:40;97094.59;;;18.79;77.02
13434;BME280;6789;47.678;9.158;2022-07-19T02:33:57;97085.56;;;18.75;76.91
13434;BME280;6789;47.678;9.158;2022-07-19T02:38:50;97090.59;;;18.72;77.56
13434;BME280;6789;47.678;9.158;2022-07-19T02:43:42;97087.13;;;18.71;78.04
13434;BME280;6789;47.678;9.158;2022-07-19T02:48:34;97083.44;;;18.63;78.15
13434;BME280;6789;47.678;9.158;2022-07-19T02:53:26;97094.56;;;18.60;78.46
13434;BME280;6789;47.678;9.158;2022-07-19T02:58:17;97088.44;;;18.54;78.65
13434;BME280;6789;47.678;9.158;2022-07-19T03:03:10;97083.69;;;18.46;79.20
13434;BME280;6789;47.678;9.158;2022-07-19T03:08:20;97091.34;;;18.33;80.47
13434;BME280;6789;47.678;9.158;2022-07-19T03:13:12;97089.25;;;18.30;80.47
13434;BME280;6789;47.678;9.158;2022-07-19T03:18:04;97090.56;;;18.27;80.42
13434;BME280;6789;47.678;9.158;2022-07-19T03:22:56;97088.97;;;18.21;81.08
13434;BME280;6789;47.678;9.158;2022-07-19T03:27:48;97081.19;;;18.15;81.78
13434;BME280;6789;47.678;9.158;2022-07-19T03:32:40;97079.38;;;18.15;82.08
13434;BME280;6789;47.678;9.158;2022-07-19T03:37:31;97086.78;;;18.13;82.06
13434;BME280;6789;47.678;9.158;2022-07-19T03:42:24;97085.97;;;18.08;82.53
13434;BME280;6789;47.678;9.158;2022-07-19T03:47:30;97096.31;;;18.04;82.62
13434;BME280;6789;47.678;9.158;2022-07-19T03:52:25;97091.81;;;18.05;82.39
13434;BME280;6789;47.678;9.158;2022-07-19T03:57:19;97087.03;;;18.07;82.80
13434;BME280;6789;47.678;9.158;2022-07-19T04:02:25;97087.56;;;18.09;82.69
13434;BME280;6789;47.678;9.158;2022-07-19T04:07:31;97083.34;;;18.18;82.33
13434;BME280;6789;47.678;9.158;2022-07-19T04:13:19;97091.91;;;19.14;78.80
13434;BME280;6789;47.678;9.158;2022-07-19T04:19:19;97084.78;;;20.74;71.54
13434;BME280;6789;47.678;9.158;2022-07-19T04:25:26;97081.50;;;22.64;61.62
13434;BME280;6789;47.678;9.158;2022-07-19T04:32:08;97092.84;;;24.05;56.12
13434;BME280;6789;47.678;9.158;2022-07-19T04:38:14;97087.66;;;25.75;50.48
13434;BME280;6789;47.678;9.158;2022-07-19T04:44:12;97085.94;;;26.76;46.81
13434;BME280;6789;47.678;9.158;2022-07-19T04:49:53;97091.25;;;27.36;45.02
13434;BME280;6789;47.678;9.158;2022-07-19T04:55:55;97095.00;;;27.97;43.67
13434;BME280;6789;47.678;9.158;2022-07-19T05:36:47;97081.50;;;34.07;34.74
13434;BME280;6789;47.678;9.158;2022-07-19T06:19:27;97094.63;;;34.01;31.63
13434;BME280;6789;47.678;9.158;2022-07-19T06:24:39;97096.78;;;33.92;33.23
13434;BME280;6789;47.678;9.158;2022-07-19T06:29:46;97092.50;;;33.28;34.25
13434;BME280;6789;47.678;9.158;2022-07-19T06:35:03;97099.28;;;31.96;35.95
13434;BME280;6789;47.678;9.158;2022-07-19T06:40:10;97088.19;;;31.43;37.08
13434;BME280;6789;47.678;9.158;2022-07-19T06:46:09;97086.91;;;30.71;37.63
13434;BME280;6789;47.678;9.158;2022-07-19T06:51:19;97080.31;;;30.44;38.58
13434;BME280;6789;47.678;9.158;2022-07-19T06:56:25;97074.91;;;29.85;39.49
13434;BME280;6789;47.678;9.158;2022-07-19T07:01:42;97075.59;;;30.06;38.98
13434;BME280;6789;47.678;9.158;2022-07-19T07:07:10;97066.13;;;29.88;39.68
13434;BME280;6789;47.678;9.158;2022-07-19T07:12:35;97079.19;;;29.74;39.71
13434;BME280;6789;47.678;9.158;2022-07-19T07:17:42;97079.47;;;29.04;40.35
13434;BME280;6789;47.678;9.158;2022-07-19T07:22:51;97071.59;;;28.79;41.72
13434;BME280;6789;47.678;9.158;2022-07-19T07:27:57;97074.75;;;29.13;40.88
13434;BME280;6789;47.678;9.158;2022-07-19T07:33:03;97067.91;;;29.48;41.02
13434;BME280;6789;47.678;9.158;2022-07-19T07:37:55;97060.41;;;29.33;40.48
13434;BME280;6789;47.678;9.158;2022-07-19T07:43:03;97059.25;;;29.22;41.26
13434;BME280;6789;47.678;9.158;2022-07-19T07:47:55;97052.06;;;29.26;41.95
13434;BME280;6789;47.678;9.158;2022-07-19T07:52:47;97054.41;;;29.28;41.48
13434;BME280;6789;47.678;9.158;2022-07-19T07:57:39;97047.50;;;29.39;41.25
13434;BME280;6789;47.678;9.158;2022-07-19T08:02:38;97042.22;;;29.54;40.88
13434;BME280;6789;47.678;9.158;2022-07-19T08:07:30;97043.81;;;29.67;39.99
13434;BME280;6789;47.678;9.158;2022-07-19T08:12:22;97039.84;;;29.64;38.88
13434;BME280;6789;47.678;9.158;2022-07-19T08:17:15;97041.09;;;29.11;39.83
13434;BME280;6789;47.678;9.158;2022-07-19T08:22:07;97055.34;;;28.47;38.61
13434;BME280;6789;47.678;9.158;2022-07-19T08:26:59;97044.91;;;29.10;36.00
13434;BME280;6789;47.678;9.158;2022-07-19T08:31:51;97044.69;;;29.35;35.10
13434;BME280;6789;47.678;9.158;2022-07-19T08:36:43;97039.94;;;29.44;34.88
13434;BME280;6789;47.678;9.158;2022-07-19T08:41:35;97037.97;;;28.89;36.00
13434;BME280;6789;47.678;9.158;2022-07-19T08:46:27;97036.88;;;28.90;36.10
13434;BME280;6789;47.678;9.158;2022-07-19T08:51:20;97032.00;;;28.63;36.10
13434;BME280;6789;47.678;9.158;2022-07-19T08:56:13;97036.63;;;28.83;36.64
13434;BME280;6789;47.678;9.158;2022-07-19T09:01:23;97026.75;;;29.43;37.14
13434;BME280;6789;47.678;9.158;2022-07-19T09:06:15;97030.47;;;29.86;35.89
13434;BME280;6789;47.678;9.158;2022-07-19T09:11:07;97031.41;;;30.02;35.81
13434;BME280;6789;47.678;9.158;2022-07-19T09:16:08;97032.91;;;30.50;35.30
13434;BME280;6789;47.678;9.158;2022-07-19T09:21:04;97028.66;;;30.26;35.26
13434;BME280;6789;47.678;9.158;2022-07-19T09:26:01;97022.53;;;30.52;35.18
13434;BME280;6789;47.678;9.158;2022-07-19T09:30:58;97017.63;;;30.85;34.83
13434;BME280;6789;47.678;9.158;2022-07-19T09:36:12;97021.78;;;31.22;33.48
13434;BME280;6789;47.678;9.158;2022-07-19T09:41:12;97021.16;;;30.58;34.76
13434;BME280;6789;47.678;9.158;2022-07-19T09:46:05;97032.91;;;31.05;34.08
13434;BME280;6789;47.678;9.158;2022-07-19T09:51:21;97026.56;;;31.13;33.91
13434;BME280;6789;47.678;9.158;2022-07-19T09:56:15;97020.91;;;31.49;33.65
13434;BME280;6789;47.678;9.158;2022-07-19T10:01:07;97013.66;;;31.68;33.64
13434;BME280;6789;47.678;9.158;2022-07-19T10:05:59;97007.84;;;31.85;32.75
13434;BME280;6789;47.678;9.158;2022-07-19T10:10:54;97009.31;;;32.13;31.91
13434;BME280;6789;47.678;9.158;2022-07-19T10:15:48;97000.72;;;31.96;31.67
13434;BME280;6789;47.678;9.158;2022-07-19T10:20:46;97008.91;;;31.50;32.06
13434;BME280;6789;47.678;9.158;2022-07-19T10:25:45;96999.63;;;31.20;32.42
13434;BME280;6789;47.678;9.158;2022-07-19T10:30:40;96995.16;;;31.27;32.90
13434;BME280;6789;47.678;9.158;2022-07-19T10:35:34;96990.28;;;31.64;32.68
13434;BME280;6789;47.678;9.158;2022-07-19T10:40:55;96983.09;;;31.10;32.93
13434;BME280;6789;47.678;9.158;2022-07-19T10:50:56;96972.28;;;31.90;33.19
13434;BME280;6789;47.678;9.158;2022-07-19T11:01:16;96965.03;;;32.66;31.70
13434;BME280;6789;47.678;9.158;2022-07-19T11:06:36;96962.72;;;32.87;31.23
13434;BME280;6789;47.678;9.158;2022-07-19T11:11:37;96958.38;;;33.05;30.90
13434;BME280;6789;47.678;9.158;2022-07-19T11:16:44;96952.66;;;33.32;30.53
13434;BME280;6789;47.678;9.158;2022-07-19T11:21:37;96949.03;;;33.47;30.11
13434;BME280;6789;47.678;9.158;2022-07-19T11:26:39;96939.16;;;33.39;30.05
13434;BME280;6789;47.678;9.158;2022-07-19T11:31:49;96941.56;;;33.44;29.43
13434;BME280;6789;47.678;9.158;2022-07-19T11:36:42;96931.72;;;33.84;29.24
13434;BME280;6789;47.678;9.158;2022-07-19T11:41:35;96934.72;;;33.76;29.68
13434;BME280;6789;47.678;9.158;2022-07-19T11:46:37;96932.03;;;33.31;29.61
13434;BME280;6789;47.678;9.158;2022-07-19T11:51:30;96914.50;;;33.77;29.43
13434;BME280;6789;47.678;9.158;2022-07-19T11:56:29;96913.69;;;33.73;29.15
13434;BME280;6789;47.678;9.158;2022-07-19T12:01:43;96913.84;;;33.87;29.04
13434;BME280;6789;47.678;9.158;2022-07-19T12:06:48;96903.09;;;33.97;28.97
13434;BME280;6789;47.678;9.158;2022-07-19T12:11:52;96898.13;;;33.73;28.57
13434;BME280;6789;47.678;9.158;2022-07-19T12:16:45;96894.78;;;34.13;27.90
13434;BME280;6789;47.678;9.158;2022-07-19T12:21:41;96892.00;;;34.09;27.99
13434;BME280;6789;47.678;9.158;2022-07-19T12:26:34;96900.34;;;34.23;28.61
13434;BME280;6789;47.678;9.158;2022-07-19T12:31:46;96886.53;;;34.38;28.39
13434;BME280;6789;47.678;9.158;2022-07-19T12:36:38;96887.22;;;34.03;29.14
13434;BME280;6789;47.678;9.158;2022-07-19T12:41:32;96870.75;;;34.21;28.20
13434;BME280;6789;47.678;9.158;2022-07-19T12:46:25;96870.03;;;34.28;28.57
13434;BME280;6789;47.678;9.158;2022-07-19T12:51:31;96861.41;;;34.55;28.55
13434;BME280;6789;47.678;9.158;2022-07-19T12:56:23;96865.91;;;34.41;28.65
13434;BME280;6789;47.678;9.158;2022-07-19T13:01:17;96862.28;;;34.63;28.69
13434;BME280;6789;47.678;9.158;2022-07-19T13:06:09;96854.00;;;34.52;28.90
13434;BME280;6789;47.678;9.158;2022-07-19T13:11:02;96852.03;;;34.53;28.75
13434;BME280;6789;47.678;9.158;2022-07-19T13:15:55;96851.78;;;34.65;27.69
13434;BME280;6789;47.678;9.158;2022-07-19T13:20:48;96839.06;;;34.07;28.57
13434;BME280;6789;47.678;9.158;2022-07-19T13:25:40;96844.75;;;34.27;28.74
13434;BME280;6789;47.678;9.158;2022-07-19T13:30:36;96842.09;;;34.34;28.37
13434;BME280;6789;47.678;9.158;2022-07-19T13:35:30;96836.13;;;33.93;27.10
13434;BME280;6789;47.678;9.158;2022-07-19T13:40:23;96830.41;;;34.34;26.45
13434;BME280;6789;47.678;9.158;2022-07-19T13:45:15;96829.50;;;34.56;25.66
13434;BME280;6789;47.678;9.158;2022-07-19T13:50:13;96830.78;;;34.69;26.26
13434;BME280;6789;47.678;9.158;2022-07-19T13:55:18;96819.22;;;34.46;26.68
13434;BME280;6789;47.678;9.158;2022-07-19T14:00:12;96818.63;;;34.23;26.38
13434;BME280;6789;47.678;9.158;2022-07-19T14:05:08;96810.22;;;34.38;24.90
13434;BME280;6789;47.678;9.158;2022-07-19T14:10:15;96807.75;;;34.63;23.90
13434;BME280;6789;47.678;9.158;2022-07-19T14:15:08;96800.88;;;34.79;23.97
13434;BME280;6789;47.678;9.158;2022-07-19T14:20:00;96798.56;;;34.81;24.03
13434;BME280;6789;47.678;9.158;2022-07-19T14:24:52;96794.16;;;34.70;24.48
13434;BME280;6789;47.678;9.158;2022-07-19T14:30:00;96790.81;;;34.87;24.03
13434;BME280;6789;47.678;9.158;2022-07-19T14:35:07;96791.19;;;34.82;24.07
13434;BME280;6789;47.678;9.158;2022-07-19T14:40:00;96777.47;;;34.35;24.50
13434;BME280;6789;47.678;9.158;2022-07-19T14:44:52;96781.97;;;34.17;23.33
13434;BME280;6789;47.678;9.158;2022-07-19T14:49:44;96770.03;;;33.96;21.96
13434;BME280;6789;47.678;9.158;2022-07-19T14:54:36;96779.03;;;34.00;22.10
13434;BME280;6789;47.678;9.158;2022-07-19T14:59:30;96772.69;;;33.89;21.13
13434;BME280;6789;47.678;9.158;2022-07-19T15:04:30;96767.94;;;33.82;20.87
13434;BME280;6789;47.678;9.158;2022-07-19T15:09:23;96759.94;;;34.00;21.53
13434;BME280;6789;47.678;9.158;2022-07-19T15:14:30;96761.06;;;33.92;21.42
13434;BME280;6789;47.678;9.158;2022-07-19T15:19:23;96764.53;;;33.92;21.39
13434;BME280;6789;47.678;9.158;2022-07-19T15:24:17;96757.78;;;34.12;21.52
13434;BME280;6789;47.678;9.158;2022-07-19T15:29:24;96755.59;;;34.28;20.77
13434;BME280;6789;47.678;9.158;2022-07-19T15:34:17;96750.16;;;34.28;20.51
13434;BME280;6789;47.678;9.158;2022-07-19T15:39:09;96747.03;;;34.29;20.06
13434;BME280;6789;47.678;9.158;2022-07-19T15:44:03;96749.50;;;34.38;19.94
13434;BME280;6789;47.678;9.158;2022-07-19T15:49:01;96747.16;;;34.40;19.57
13434;BME280;6789;47.678;9.158;2022-07-19T15:53:55;96741.00;;;34.07;19.44
13434;BME280;6789;47.678;9.158;2022-07-19T15:58:47;96731.66;;;34.08;20.15
13434;BME280;6789;47.678;9.158;2022-07-19T16:03:42;96723.63;;;34.21;20.52
13434;BME280;6789;47.678;9.158;2022-07-19T16:08:34;96728.34;;;34.28;21.22
13434;BME280;6789;47.678;9.158;2022-07-19T16:13:27;96722.84;;;34.21;20.92
13434;BME280;6789;47.678;9.158;2022-07-19T16:18:19;96713.16;;;34.27;20.75
13434;BME280;6789;47.678;9.158;2022-07-19T16:23:11;96710.84;;;34.29;20.78
13434;BME280;6789;47.678;9.158;2022-07-19T16:28:23;96700.28;;;34.20;20.75
13434;BME280;6789;47.678;9.158;2022-07-19T16:33:16;96704.63;;;33.92;20.85
13434;BME280;6789;47.678;9.158;2022-07-19T16:38:11;96698.41;;;33.92;20.66
13434;BME280;6789;47.678;9.158;2022-07-19T16:43:04;96699.38;;;34.06;21.87
13434;BME280;6789;47.678;9.158;2022-07-19T16:48:01;96696.50;;;33.96;21.39
13434;BME280;6789;47.678;9.158;2022-07-19T16:52:53;96692.63;;;33.97;20.86
13434;BME280;6789;47.678;9.158;2022-07-19T16:57:47;96690.94;;;33.85;23.02
13434;BME280;6789;47.678;9.158;2022-07-19T17:02:39;96690.56;;;33.87;22.96
13434;BME280;6789;47.678;9.158;2022-07-19T17:07:31;96685.69;;;33.66;23.42
13434;BME280;6789;47.678;9.158;2022-07-19T17:12:26;96691.84;;;33.60;24.41
13434;BME280;6789;47.678;9.158;2022-07-19T17:17:18;96686.28;;;33.53;23.41
13434;BME280;6789;47.678;9.158;2022-07-19T17:22:10;96681.31;;;33.58;23.09
13434;BME280;6789;47.678;9.158;2022-07-19T17:27:05;96684.91;;;33.66;23.09
13434;BME280;6789;47.678;9.158;2022-07-19T17:31:57;96680.97;;;33.60;23.45
13434;BME280;6789;47.678;9.158;2022-07-19T17:36:49;96680.13;;;33.56;23.06
13434;BME280;6789;47.678;9.158;2022-07-19T17:41:42;96681.59;;;33.50;23.25
13434;BME280;6789;47.678;9.158;2022-07-19T17:46:48;96677.53;;;33.37;22.49
13434;BME280;6789;47.678;9.158;2022-07-19T17:51:44;96672.81;;;33.31;22.41
13434;BME280;6789;47.678;9.158;2022-07-19T17:56:37;96675.91;;;33.29;22.61
13434;BME280;6789;47.678;9.158;2022-07-19T18:01:29;96668.34;;;33.16;22.24
13434;BME280;6789;47.678;9.158;2022-07-19T18:06:21;96669.81;;;33.10;22.53
13434;BME280;6789;47.678;9.158;2022-07-19T18:11:15;96666.97;;;33.03;21.55
13434;BME280;6789;47.678;9.158;2022-07-19T18:16:11;96671.59;;;32.99;21.86
13434;BME280;6789;47.678;9.158;2022-07-19T18:21:23;96670.72;;;32.91;23.36
13434;BME280;6789;47.678;9.158;2022-07-19T18:26:15;96669.78;;;32.80;23.82
13434;BME280;6789;47.678;9.158;2022-07-19T18:31:07;96670.41;;;32.70;24.15
13434;BME280;6789;47.678;9.158;2022-07-19T18:36:01;96665.97;;;32.59;25.10
13434;BME280;6789;47.678;9.158;2022-07-19T18:40:56;96672.97;;;32.38;24.80
13434;BME280;6789;47.678;9.158;2022-07-19T18:45:49;96667.16;;;32.13;27.71
13434;BME280;6789;47.678;9.158;2022-07-19T18:50:41;96667.69;;;31.78;30.22
13434;BME280;6789;47.678;9.158;2022-07-19T18:55:33;96677.97;;;31.50;31.20
13434;BME280;6789;47.678;9.158;2022-07-19T19:00:25;96667.56;;;31.14;32.39
13434;BME280;6789;47.678;9.158;2022-07-19T19:05:17;96664.41;;;30.78;32.71
13434;BME280;6789;47.678;9.158;2022-07-19T19:10:09;96673.22;;;30.40;34.10
13434;BME280;6789;47.678;9.158;2022-07-19T19:15:02;96664.94;;;30.03;34.10
13434;BME280;6789;47.678;9.158;2022-07-19T19:19:54;96676.38;;;29.69;35.16
13434;BME280;6789;47.678;9.158;2022-07-19T19:24:46;96668.44;;;29.33;36.98
13434;BME280;6789;47.678;9.158;2022-07-19T19:29:38;96683.28;;;29.00;36.94
13434;BME280;6789;47.678;9.158;2022-07-19T19:34:30;96693.66;;;28.74;37.17
13434;BME280;6789;47.678;9.158;2022-07-19T19:39:22;96694.81;;;28.49;38.19
13434;BME280;6789;47.678;9.158;2022-07-19T19:44:14;96701.22;;;28.21;39.00
13434;BME280;6789;47.678;9.158;2022-07-19T19:49:06;96708.03;;;27.95;39.72
13434;BME280;6789;47.678;9.158;2022-07-19T19:53:58;96715.38;;;27.74;39.98
13434;BME280;6789;47.678;9.158;2022-07-19T19:58:49;96719.97;;;27.61;39.61
13434;BME280;6789;47.678;9.158;2022-07-19T20:03:42;96722.38;;;27.54;40.88
13434;BME280;6789;47.678;9.158;2022-07-19T20:08:37;96721.16;;;27.32;41.20
13434;BME280;6789;47.678;9.158;2022-07-19T20:13:39;96719.19;;;27.20;42.36
13434;BME280;6789;47.678;9.158;2022-07-19T20:18:31;96719.06;;;27.17;41.96
13434;BME280;6789;47.678;9.158;2022-07-19T20:23:23;96728.06;;;27.00;42.93
13434;BME280;6789;47.678;9.158;2022-07-19T20:28:15;96731.91;;;26.91;43.21
13434;BME280;6789;47.678;9.158;2022-07-19T20:33:07;96725.69;;;26.70;44.00
13434;BME280;6789;47.678;9.158;2022-07-19T20:38:02;96739.44;;;26.48;45.00
13434;BME280;6789;47.678;9.158;2022-07-19T20:42:59;96733.00;;;26.41;45.03
13434;BME280;6789;47.678;9.158;2022-07-19T20:47:51;96737.44;;;26.28;45.02
13434;BME280;6789;47.678;9.158;2022-07-19T20:52:43;96733.84;;;26.24;44.51
13434;BME280;6789;47.678;9.158;2022-07-19T20:57:35;96735.47;;;26.08;46.02
13434;BME280;6789;47.678;9.158;2022-07-19T21:02:27;96738.97;;;26.00;46.16
13434;BME280;6789;47.678;9.158;2022-07-19T21:07:20;96747.19;;;25.95;45.72
13434;BME280;6789;47.678;9.158;2022-07-19T21:12:32;96750.47;;;26.09;45.17
13434;BME280;6789;47.678;9.158;2022-07-19T21:17:23;96754.13;;;26.13;45.18
13434;BME280;6789;47.678;9.158;2022-07-19T21:22:15;96753.97;;;26.10;45.10
13434;BME280;6789;47.678;9.158;2022-07-19T21:27:07;96757.00;;;26.00;46.34
13434;BME280;6789;47.678;9.158;2022-07-19T21:31:59;96759.75;;;25.83;46.79
13434;BME280;6789;47.678;9.158;2022-07-19T21:36:51;96761.16;;;25.64;47.54
13434;BME280;6789;47.678;9.158;2022-07-19T21:41:43;96760.84;;;25.40;48.85
13434;BME280;6789;47.678;9.158;2022-07-19T21:46:35;96755.50;;;25.23;49.30
13434;BME280;6789;47.678;9.158;2022-07-19T21:51:28;96760.25;;;25.26;49.62
13434;BME280;6789;47.678;9.158;2022-07-19T21:56:20;96765.28;;;25.11;49.98
13434;BME280;6789;47.678;9.158;2022-07-19T22:01:13;96776.41;;;24.79;51.40
13434;BME280;6789;47.678;9.158;2022-07-19T22:06:07;96775.66;;;24.95;51.21
13434;BME280;6789;47.678;9.158;2022-07-19T22:10:59;96773.75;;;24.87;52.04
13434;BME280;6789;47.678;9.158;2022-07-19T22:15:53;96774.78;;;24.61;52.77
13434;BME280;6789;47.678;9.158;2022-07-19T22:20:45;96769.84;;;24.46;53.38
13434;BME280;6789;47.678;9.158;2022-07-19T22:25:38;96777.50;;;24.69;52.09
13434;BME280;6789;47.678;9.158;2022-07-19T22:30:30;96774.66;;;24.74;52.93
13434;BME280;6789;47.678;9.158;2022-07-19T22:35:24;96778.81;;;24.42;55.02
13434;BME280;6789;47.678;9.158;2022-07-19T22:40:16;96781.22;;;24.43;55.21
13434;BME280;6789;47.678;9.158;2022-07-19T22:45:08;96774.97;;;24.34;54.50
13434;BME280;6789;47.678;9.158;2022-07-19T22:50:00;96781.56;;;24.58;54.35
13434;BME280;6789;47.678;9.158;2022-07-19T22:54:52;96786.94;;;24.58;54.33
13434;BME280;6789;47.678;9.158;2022-07-19T22:59:43;96785.19;;;24.54;55.17
13434;BME280;6789;47.678;9.158;2022-07-19T23:04:35;96788.16;;;24.52;55.12
13434;BME280;6789;47.678;9.158;2022-07-19T23:09:27;96795.91;;;24.24;55.83
13434;BME280;6789;47.678;9.158;2022-07-19T23:14:19;96793.72;;;24.26;56.52
13434;BME280;6789;47.678;9.158;2022-07-19T23:19:11;96780.97;;;23.79;58.90
13434;BME280;6789;47.678;9.158;2022-07-19T23:24:03;96787.25;;;23.53;59.53
13434;BME280;6789;47.678;9.158;2022-07-19T23:28:55;96787.78;;;23.41;59.88
13434;BME280;6789;47.678;9.158;2022-07-19T23:33:47;96787.28;;;23.61;58.61
13434;BME280;6789;47.678;9.158;2022-07-19T23:38:39;96793.97;;;23.85;57.40
13434;BME280;6789;47.678;9.158;2022-07-19T23:43:30;96782.09;;;23.78;57.39
13434;BME280;6789;47.678;9.158;2022-07-19T23:48:26;96795.16;;;23.58;56.93
13434;BME280;6789;47.678;9.158;2022-07-19T23:53:17;96797.69;;;23.63;56.71
13434;BME280;6789;47.678;9.158;2022-07-19T23:58:09;96801.97;;;23.64;56.78
